createdAt,value
2019-05-13T00:00:18.186Z,98.70
2019-05-13T00:02:46.969Z,99.00
2019-05-13T00:05:15.766Z,99.10
2019-05-13T00:07:44.607Z,99.10
2019-05-13T00:10:14.794Z,99.10
2019-05-13T00:12:46.404Z,98.90
2019-05-13T00:15:15.539Z,98.60
2019-05-13T00:17:47.006Z,98.70
2019-05-13T00:20:18.455Z,98.80
2019-05-13T00:22:47.330Z,98.80
2019-05-13T00:25:16.121Z,99.00
2019-05-13T00:27:46.891Z,99.00
2019-05-13T00:30:15.739Z,99.10
2019-05-13T00:32:46.514Z,99.30
2019-05-13T00:35:15.311Z,99.30
2019-05-13T00:37:49.891Z,99.40
2019-05-13T00:40:19.638Z,99.40
2019-05-13T00:42:48.427Z,99.40
2019-05-13T00:45:17.278Z,99.50
2019-05-13T00:47:49.089Z,99.50
2019-05-13T00:50:20.463Z,99.50
2019-05-13T00:52:53.480Z,99.60
2019-05-13T00:55:24.712Z,99.70
2019-05-13T00:57:59.328Z,99.90
2019-05-13T01:00:28.102Z,99.90
2019-05-13T01:02:56.927Z,99.90
2019-05-13T01:05:33.722Z,99.90
2019-05-13T01:08:03.897Z,99.90
2019-05-13T01:10:34.576Z,99.90
2019-05-13T01:13:09.774Z,99.90
2019-05-13T01:15:38.563Z,99.90
2019-05-13T01:18:14.287Z,99.90
2019-05-13T01:20:46.079Z,99.90
2019-05-13T01:23:20.694Z,99.90
2019-05-13T01:25:49.502Z,99.90
2019-05-13T01:28:23.780Z,99.90
2019-05-13T01:30:53.784Z,99.90
2019-05-13T01:33:25.625Z,99.90
2019-05-13T01:35:54.431Z,99.90
2019-05-13T01:38:24.113Z,99.90
2019-05-13T01:40:53.898Z,99.90
2019-05-13T01:43:25.094Z,99.90
2019-05-13T01:45:53.889Z,99.90
2019-05-13T01:48:24.092Z,99.90
2019-05-13T01:50:53.435Z,99.90
2019-05-13T01:53:24.368Z,99.90
2019-05-13T01:55:55.542Z,99.90
2019-05-13T01:58:30.170Z,99.90
2019-05-13T02:01:01.602Z,99.90
2019-05-13T02:03:33.829Z,99.90
2019-05-13T02:06:03.789Z,99.90
2019-05-13T02:08:36.047Z,99.90
2019-05-13T02:11:13.162Z,99.90
2019-05-13T02:13:44.764Z,99.90
2019-05-13T02:16:19.618Z,99.90
2019-05-13T02:18:53.536Z,99.90
2019-05-13T02:21:24.317Z,99.90
2019-05-13T02:23:53.657Z,99.90
2019-05-13T02:26:24.058Z,99.90
2019-05-13T02:28:54.126Z,99.90
2019-05-13T02:31:39.518Z,99.90
2019-05-13T02:33:54.449Z,99.90
2019-05-13T02:36:32.666Z,99.90
2019-05-13T02:39:02.381Z,99.90
2019-05-13T02:41:34.121Z,99.90
2019-05-13T02:44:03.933Z,99.90
2019-05-13T02:46:33.756Z,99.90
2019-05-13T02:49:03.350Z,99.90
2019-05-13T02:51:32.945Z,99.90
2019-05-13T02:54:03.582Z,99.90
2019-05-13T02:56:34.953Z,99.90
2019-05-13T02:59:07.014Z,99.90
2019-05-13T03:01:43.226Z,99.90
2019-05-13T03:04:13.154Z,99.90
2019-05-13T03:06:44.847Z,99.90
2019-05-13T03:09:14.603Z,99.90
2019-05-13T03:11:43.428Z,99.90
2019-05-13T03:14:12.910Z,99.90
2019-05-13T03:16:43.571Z,99.90
2019-05-13T03:19:18.155Z,99.90
2019-05-13T03:21:46.931Z,99.90
2019-05-13T03:24:15.772Z,99.90
2019-05-13T03:26:47.194Z,99.90
2019-05-13T03:29:15.960Z,99.90
2019-05-13T03:31:46.787Z,99.90
2019-05-13T03:34:17.864Z,99.90
2019-05-13T03:36:47.340Z,99.90
2019-05-13T03:39:16.836Z,99.90
2019-05-13T03:41:48.635Z,99.90
2019-05-13T03:44:23.763Z,99.90
2019-05-13T03:46:54.509Z,99.90
2019-05-13T03:49:26.328Z,99.90
2019-05-13T03:51:57.803Z,99.90
2019-05-13T03:54:32.805Z,99.90
2019-05-13T03:57:04.078Z,99.90
2019-05-13T03:59:33.830Z,99.90
2019-05-13T04:02:05.262Z,99.90
2019-05-13T04:04:34.043Z,99.90
2019-05-13T04:07:03.188Z,99.90
2019-05-13T04:09:36.552Z,99.90
2019-05-13T04:12:03.625Z,99.90
2019-05-13T04:14:42.188Z,99.90
2019-05-13T04:17:12.519Z,99.90
2019-05-13T04:19:43.618Z,99.90
2019-05-13T04:22:13.124Z,99.90
2019-05-13T04:24:42.856Z,99.90
2019-05-13T04:27:13.246Z,99.90
2019-05-13T04:29:43.258Z,99.90
2019-05-13T04:32:12.900Z,99.90
2019-05-13T04:34:42.580Z,99.90
2019-05-13T04:37:13.427Z,99.90
2019-05-13T04:39:51.028Z,99.90
2019-05-13T04:42:12.951Z,99.90
2019-05-13T04:44:44.569Z,99.90
2019-05-13T04:47:19.109Z,99.90
2019-05-13T04:49:53.733Z,99.90
2019-05-13T04:52:22.708Z,99.90
2019-05-13T04:54:52.812Z,99.90
2019-05-13T04:57:22.681Z,99.90
2019-05-13T04:59:54.884Z,99.90
2019-05-13T05:02:58.722Z,99.90
2019-05-13T05:05:42.013Z,99.90
2019-05-13T05:08:47.950Z,99.90
2019-05-13T05:11:42.660Z,99.90
2019-05-13T05:14:32.347Z,99.90
2019-05-13T05:17:32.608Z,99.90
2019-05-13T05:20:03.898Z,99.90
2019-05-13T05:22:52.501Z,99.90
2019-05-13T05:25:32.009Z,99.90
2019-05-13T05:28:29.139Z,99.90
2019-05-13T05:31:17.105Z,99.90
2019-05-13T05:34:11.586Z,99.90
2019-05-13T05:37:01.617Z,99.90
2019-05-13T05:39:33.018Z,99.90
2019-05-13T05:42:02.330Z,99.90
2019-05-13T05:44:32.609Z,99.90
2019-05-13T05:47:03.319Z,99.90
2019-05-13T05:49:32.313Z,99.90
2019-05-13T05:52:04.335Z,99.90
2019-05-13T05:54:42.056Z,99.90
2019-05-13T05:57:13.671Z,99.90
2019-05-13T05:59:42.855Z,99.90
2019-05-13T06:02:12.298Z,99.90
2019-05-13T06:04:43.076Z,99.90
2019-05-13T06:07:17.562Z,99.90
2019-05-13T06:09:46.407Z,99.70
2019-05-13T06:12:15.617Z,99.30
2019-05-13T06:14:44.719Z,99.30
2019-05-13T06:17:13.555Z,99.20
2019-05-13T06:19:42.434Z,98.50
2019-05-13T06:22:12.315Z,97.70
2019-05-13T06:24:42.183Z,97.60
2019-05-13T06:27:17.004Z,97.30
2019-05-13T06:29:49.045Z,97.00
2019-05-13T06:32:22.437Z,96.70
2019-05-13T06:34:47.109Z,96.50
2019-05-13T06:37:15.960Z,96.30
2019-05-13T06:39:51.262Z,96.40
2019-05-13T06:42:22.223Z,96.10
2019-05-13T06:44:53.783Z,96.00
2019-05-13T06:47:28.550Z,95.50
2019-05-13T06:49:57.433Z,95.00
2019-05-13T06:52:26.351Z,94.50
2019-05-13T06:54:55.220Z,94.30
2019-05-13T06:57:24.015Z,94.40
2019-05-13T06:59:52.841Z,94.50
2019-05-13T07:02:21.776Z,94.10
2019-05-13T07:04:51.616Z,94.00
2019-05-13T07:07:26.482Z,93.70
2019-05-13T07:10:02.566Z,93.10
2019-05-13T07:12:31.654Z,92.50
2019-05-13T07:15:04.793Z,92.70
2019-05-13T07:17:33.575Z,92.30
2019-05-13T07:20:08.548Z,92.30
2019-05-13T07:22:44.758Z,92.40
2019-05-13T07:25:14.015Z,91.50
2019-05-13T07:27:47.058Z,90.80
2019-05-13T07:30:20.814Z,90.30
2019-05-13T07:32:49.242Z,89.80
2019-05-13T07:35:18.047Z,90.30
2019-05-13T07:37:46.934Z,90.00
2019-05-13T07:40:16.039Z,89.50
2019-05-13T07:42:44.803Z,86.70
2019-05-13T07:45:13.670Z,86.10
2019-05-13T07:47:45.061Z,85.60
2019-05-13T07:50:13.849Z,86.20
2019-05-13T07:52:43.171Z,85.40
2019-05-13T07:55:16.080Z,86.40
2019-05-13T07:57:51.482Z,86.30
2019-05-13T08:00:21.878Z,86.20
2019-05-13T08:02:52.354Z,85.30
2019-05-13T08:05:22.363Z,84.90
2019-05-13T08:07:57.213Z,84.70
2019-05-13T08:10:27.042Z,83.80
2019-05-13T08:13:02.345Z,83.00
2019-05-13T08:15:32.386Z,82.30
2019-05-13T08:18:02.049Z,81.70
2019-05-13T08:20:32.772Z,80.80
2019-05-13T08:23:02.629Z,80.10
2019-05-13T08:25:31.685Z,79.70
2019-05-13T08:28:02.070Z,79.30
2019-05-13T08:30:31.845Z,78.50
2019-05-13T08:33:01.772Z,77.50
2019-05-13T08:35:32.783Z,77.70
2019-05-13T08:38:01.615Z,77.10
2019-05-13T08:40:32.404Z,76.20
2019-05-13T08:43:01.437Z,75.30
2019-05-13T08:45:31.486Z,74.70
2019-05-13T08:48:02.064Z,73.00
2019-05-13T08:50:36.990Z,72.60
2019-05-13T08:53:05.754Z,71.80
2019-05-13T08:55:35.476Z,71.90
2019-05-13T08:58:04.363Z,72.30
2019-05-13T09:00:53.410Z,70.40
2019-05-13T09:03:23.603Z,69.50
2019-05-13T09:05:54.989Z,68.10
2019-05-13T09:08:25.119Z,67.70
2019-05-13T09:10:56.737Z,69.00
2019-05-13T09:13:27.006Z,67.10
2019-05-13T09:15:55.781Z,66.20
2019-05-13T09:18:24.629Z,66.70
2019-05-13T09:20:56.031Z,66.00
2019-05-13T09:23:24.820Z,65.10
2019-05-13T09:25:54.666Z,65.30
2019-05-13T09:28:25.451Z,65.00
2019-05-13T09:30:54.242Z,64.10
2019-05-13T09:33:23.122Z,62.60
2019-05-13T09:35:53.540Z,61.90
2019-05-13T09:38:22.440Z,61.90
2019-05-13T09:40:57.173Z,61.70
2019-05-13T09:43:25.962Z,60.60
2019-05-13T09:45:54.794Z,61.60
2019-05-13T09:48:25.659Z,61.00
2019-05-13T09:51:02.379Z,61.00
2019-05-13T09:53:32.524Z,60.00
2019-05-13T09:56:02.390Z,59.50
2019-05-13T09:58:33.122Z,58.90
2019-05-13T10:01:01.936Z,58.90
2019-05-13T10:03:33.097Z,58.80
2019-05-13T10:06:04.668Z,58.80
2019-05-13T10:08:36.739Z,58.30
2019-05-13T10:11:12.320Z,57.50
2019-05-13T10:13:41.340Z,56.60
2019-05-13T10:16:12.453Z,56.30
2019-05-13T10:18:46.360Z,56.70
2019-05-13T10:21:15.151Z,56.20
2019-05-13T10:23:44.019Z,55.90
2019-05-13T10:26:14.396Z,55.30
2019-05-13T10:28:49.603Z,54.50
2019-05-13T10:31:24.274Z,54.40
2019-05-13T10:33:55.694Z,53.40
2019-05-13T10:36:24.489Z,53.80
2019-05-13T10:38:53.340Z,53.30
2019-05-13T10:41:22.374Z,52.90
2019-05-13T10:43:52.135Z,52.60
2019-05-13T10:46:22.083Z,51.80
2019-05-13T10:48:52.634Z,50.50
2019-05-13T10:51:22.292Z,50.90
2019-05-13T10:53:53.606Z,53.40
2019-05-13T10:56:23.889Z,54.80
2019-05-13T10:58:53.448Z,55.70
2019-05-13T11:01:24.511Z,56.20
2019-05-13T11:03:53.312Z,56.10
2019-05-13T11:06:22.179Z,57.20
2019-05-13T11:08:53.161Z,57.60
2019-05-13T11:11:22.943Z,58.20
2019-05-13T11:14:06.712Z,58.40
2019-05-13T11:16:29.162Z,58.90
2019-05-13T11:18:58.011Z,58.90
2019-05-13T11:21:27.915Z,59.50
2019-05-13T11:23:57.679Z,59.50
2019-05-13T11:26:26.476Z,60.40
2019-05-13T11:28:55.295Z,61.20
2019-05-13T11:31:25.038Z,60.90
2019-05-13T11:34:01.857Z,61.80
2019-05-13T11:36:33.442Z,62.00
2019-05-13T11:39:02.936Z,62.50
2019-05-13T11:41:36.807Z,63.40
2019-05-13T11:44:14.189Z,63.30
2019-05-13T11:46:36.083Z,64.10
2019-05-13T11:49:05.868Z,64.30
2019-05-13T11:51:37.742Z,64.60
2019-05-13T11:54:06.722Z,65.10
2019-05-13T11:56:46.320Z,64.50
2019-05-13T11:59:14.011Z,64.90
2019-05-13T12:01:43.796Z,64.50
2019-05-13T12:04:12.596Z,65.40
2019-05-13T12:06:48.655Z,65.60
2019-05-13T12:09:13.041Z,65.40
2019-05-13T12:11:45.290Z,65.80
2019-05-13T12:14:37.331Z,65.60
2019-05-13T12:16:44.547Z,66.10
2019-05-13T12:19:14.339Z,65.90
2019-05-13T12:21:46.465Z,66.60
2019-05-13T12:24:13.591Z,66.00
2019-05-13T12:26:43.426Z,66.60
2019-05-13T12:29:19.014Z,66.40
2019-05-13T12:31:45.078Z,67.00
2019-05-13T12:34:22.129Z,67.90
2019-05-13T12:36:50.415Z,67.40
2019-05-13T12:39:23.768Z,67.90
2019-05-13T12:41:53.857Z,68.20
2019-05-13T12:44:23.078Z,68.50
2019-05-13T12:46:54.225Z,68.80
2019-05-13T12:49:22.837Z,69.30
2019-05-13T12:51:51.867Z,70.60
2019-05-13T12:54:23.364Z,70.20
2019-05-13T12:56:52.472Z,69.30
2019-05-13T12:59:22.366Z,70.20
2019-05-13T13:01:57.665Z,70.90
2019-05-13T13:04:33.481Z,71.90
2019-05-13T13:07:08.443Z,72.60
2019-05-13T13:09:38.265Z,72.00
2019-05-13T13:12:12.955Z,71.80
2019-05-13T13:14:44.418Z,72.20
2019-05-13T13:17:18.026Z,72.70
2019-05-13T13:19:53.452Z,72.70
2019-05-13T13:22:24.584Z,73.00
2019-05-13T13:24:52.980Z,73.30
2019-05-13T13:27:37.829Z,73.20
2019-05-13T13:30:02.430Z,73.90
2019-05-13T13:32:25.339Z,74.50
2019-05-13T13:34:55.106Z,73.30
2019-05-13T13:37:24.358Z,73.20
2019-05-13T13:39:55.162Z,73.80
2019-05-13T13:42:23.635Z,74.00
2019-05-13T13:47:25.558Z,74.80
2019-05-13T13:49:57.430Z,75.40
2019-05-13T13:52:26.219Z,74.80
2019-05-13T13:55:02.984Z,76.70
2019-05-13T13:57:28.582Z,75.40
2019-05-13T14:00:21.033Z,75.50
2019-05-13T14:02:27.953Z,75.10
2019-05-13T14:05:04.875Z,75.90
2019-05-13T14:07:13.241Z,74.70
2019-05-13T14:07:37.937Z,76.20
2019-05-13T14:10:06.772Z,75.60
2019-05-13T14:12:35.664Z,76.40
2019-05-13T14:15:10.380Z,77.00
2019-05-13T14:17:39.166Z,76.90
2019-05-13T14:20:08.662Z,75.90
2019-05-13T14:22:37.499Z,77.30
2019-05-13T14:25:11.358Z,77.80
2019-05-13T14:27:42.034Z,78.90
2019-05-13T14:30:14.277Z,78.00
2019-05-13T14:32:51.694Z,77.90
2019-05-13T14:35:25.169Z,78.10
2019-05-13T14:37:53.981Z,79.50
2019-05-13T14:40:23.770Z,79.40
2019-05-13T14:42:52.798Z,79.10
2019-05-13T14:45:23.854Z,79.70
2019-05-13T14:47:55.350Z,80.40
2019-05-13T14:50:24.138Z,80.70
2019-05-13T14:52:52.990Z,80.40
2019-05-13T14:55:24.464Z,79.90
2019-05-13T14:57:53.298Z,80.10
2019-05-13T15:00:22.759Z,80.30
2019-05-13T15:02:57.259Z,80.40
2019-05-13T15:05:28.691Z,80.40
2019-05-13T15:07:58.454Z,80.70
2019-05-13T15:10:27.244Z,80.60
2019-05-13T15:12:56.380Z,79.70
2019-05-13T15:15:25.158Z,81.30
2019-05-13T15:17:56.588Z,81.30
2019-05-13T15:20:25.432Z,82.00
2019-05-13T15:22:55.170Z,81.10
2019-05-13T15:25:24.001Z,81.50
2019-05-13T15:27:53.939Z,83.50
2019-05-13T15:30:28.542Z,83.40
2019-05-13T15:33:03.368Z,83.10
2019-05-13T15:35:35.214Z,83.90
2019-05-13T15:38:04.000Z,82.90
2019-05-13T15:40:32.847Z,83.00
2019-05-13T15:43:02.426Z,83.70
2019-05-13T15:45:31.978Z,83.50
2019-05-13T15:48:03.487Z,83.70
2019-05-13T15:50:33.251Z,84.60
2019-05-13T15:53:02.877Z,85.30
2019-05-13T15:55:32.007Z,84.70
2019-05-13T15:58:03.814Z,83.90
2019-05-13T16:00:34.583Z,84.60
2019-05-13T16:03:06.069Z,86.70
2019-05-13T16:05:42.321Z,87.00
2019-05-13T16:08:12.146Z,87.30
2019-05-13T16:10:43.833Z,86.70
2019-05-13T16:13:12.626Z,86.40
2019-05-13T16:15:41.746Z,87.00
2019-05-13T16:18:11.672Z,86.70
2019-05-13T16:20:44.468Z,88.30
2019-05-13T16:23:12.426Z,87.60
2019-05-13T16:25:41.808Z,88.60
2019-05-13T16:28:10.771Z,89.80
2019-05-13T16:30:41.909Z,87.80
2019-05-13T16:33:13.061Z,89.30
2019-05-13T16:35:45.038Z,89.00
2019-05-13T16:38:13.835Z,89.80
2019-05-13T16:40:42.610Z,89.60
2019-05-13T16:43:12.882Z,90.20
2019-05-13T16:45:47.575Z,90.30
2019-05-13T16:48:22.128Z,90.60
2019-05-13T16:50:50.911Z,90.90
2019-05-13T16:53:23.339Z,90.80
2019-05-13T16:55:52.162Z,90.90
2019-05-13T16:58:25.116Z,91.00
2019-05-13T17:00:57.701Z,90.60
2019-05-13T17:03:26.595Z,90.90
2019-05-13T17:05:58.523Z,91.30
2019-05-13T17:08:27.371Z,91.70
2019-05-13T17:10:58.162Z,92.20
2019-05-13T17:13:26.943Z,92.10
2019-05-13T17:15:55.774Z,92.00
2019-05-13T17:18:24.631Z,91.90
2019-05-13T17:20:53.471Z,92.20
2019-05-13T17:23:22.267Z,92.30
2019-05-13T17:25:53.650Z,91.90
2019-05-13T17:28:22.448Z,92.20
2019-05-13T17:30:51.938Z,92.60
2019-05-13T17:33:22.971Z,92.80
2019-05-13T17:35:52.281Z,92.70
2019-05-13T17:38:21.826Z,92.50
2019-05-13T17:40:52.975Z,92.60
2019-05-13T17:43:27.120Z,93.00
2019-05-13T17:46:01.791Z,93.50
2019-05-13T17:48:32.983Z,94.00
2019-05-13T17:51:01.490Z,94.30
2019-05-13T17:53:32.517Z,94.30
2019-05-13T17:56:02.403Z,94.30
2019-05-13T17:58:31.514Z,94.30
2019-05-13T18:01:03.693Z,94.20
2019-05-13T18:03:32.513Z,94.20
2019-05-13T18:06:02.317Z,94.50
2019-05-13T18:08:37.329Z,94.80
2019-05-13T18:11:06.183Z,94.70
2019-05-13T18:13:35.947Z,94.80
2019-05-13T18:16:04.742Z,95.20
2019-05-13T18:18:43.068Z,95.30
2019-05-13T18:21:04.058Z,95.70
2019-05-13T18:23:32.857Z,95.90
2019-05-13T18:26:02.116Z,95.70
2019-05-13T18:28:33.704Z,95.70
2019-05-13T18:31:02.491Z,95.60
2019-05-13T18:33:31.898Z,95.80
2019-05-13T18:36:01.975Z,95.70
2019-05-13T18:38:31.360Z,95.30
2019-05-13T18:41:01.725Z,95.60
2019-05-13T18:43:36.785Z,95.90
2019-05-13T18:46:05.702Z,95.80
2019-05-13T18:48:34.487Z,96.10
2019-05-13T18:51:06.304Z,95.70
2019-05-13T18:53:35.145Z,95.60
2019-05-13T18:56:12.268Z,95.40
2019-05-13T18:58:46.322Z,95.10
2019-05-13T19:01:15.236Z,95.10
2019-05-13T19:03:49.775Z,95.50
2019-05-13T19:06:22.368Z,95.90
2019-05-13T19:08:53.017Z,96.10
2019-05-13T19:11:22.243Z,96.10
2019-05-13T19:13:52.145Z,96.30
2019-05-13T19:16:23.800Z,96.20
2019-05-13T19:18:52.586Z,96.20
2019-05-13T19:21:22.431Z,96.00
2019-05-13T19:23:53.842Z,96.00
2019-05-13T19:26:22.630Z,95.80
2019-05-13T19:28:51.732Z,96.00
2019-05-13T19:31:23.370Z,96.00
2019-05-13T19:33:52.187Z,95.70
2019-05-13T19:36:21.147Z,95.60
2019-05-13T19:38:55.818Z,95.40
2019-05-13T19:41:24.966Z,95.20
2019-05-13T19:43:53.886Z,95.10
2019-05-13T19:46:25.614Z,95.20
2019-05-13T19:48:53.343Z,95.20
2019-05-13T19:51:32.097Z,95.40
2019-05-13T19:54:01.320Z,95.30
2019-05-13T19:56:31.890Z,95.40
2019-05-13T19:59:03.965Z,95.60
2019-05-13T20:01:36.122Z,95.80
2019-05-13T20:04:11.159Z,95.70
2019-05-13T20:06:43.120Z,96.40
2019-05-13T20:09:14.572Z,96.20
2019-05-13T20:11:55.046Z,96.30
2019-05-13T20:14:22.204Z,96.50
2019-05-13T20:16:52.433Z,96.60
2019-05-13T20:19:27.231Z,97.00
2019-05-13T20:21:56.990Z,97.10
2019-05-13T20:24:25.777Z,97.30
2019-05-13T20:26:54.834Z,97.60
2019-05-13T20:29:23.590Z,97.90
2019-05-13T20:31:58.442Z,98.30
2019-05-13T20:34:28.202Z,98.10
2019-05-13T20:37:03.085Z,98.40
2019-05-13T20:39:32.139Z,98.60
2019-05-13T20:42:01.785Z,98.70
2019-05-13T20:44:31.453Z,98.70
2019-05-13T20:47:01.632Z,98.90
2019-05-13T20:49:31.296Z,99.00
2019-05-13T20:52:00.529Z,98.90
2019-05-13T20:54:31.583Z,98.90
2019-05-13T20:57:03.536Z,99.10
2019-05-13T20:59:35.427Z,99.10
2019-05-13T21:02:04.281Z,99.10
2019-05-13T21:04:34.292Z,99.20
2019-05-13T21:07:04.219Z,99.20
2019-05-13T21:09:36.175Z,99.40
2019-05-13T21:12:12.095Z,99.40
2019-05-13T21:14:43.781Z,99.30
2019-05-13T21:17:18.610Z,99.40
2019-05-13T21:19:52.678Z,99.40
2019-05-13T21:22:21.244Z,99.50
2019-05-13T21:24:56.246Z,99.50
2019-05-13T21:27:27.586Z,99.60
2019-05-13T21:29:56.477Z,99.60
2019-05-13T21:32:28.441Z,99.60
2019-05-13T21:35:06.135Z,99.70
2019-05-13T21:37:40.760Z,99.70
2019-05-13T21:40:13.897Z,99.70
2019-05-13T21:42:42.842Z,99.90
2019-05-13T21:45:14.190Z,99.90
2019-05-13T21:47:44.108Z,99.90
2019-05-13T21:50:31.122Z,99.90
2019-05-13T21:52:51.461Z,99.90
2019-05-13T21:55:21.676Z,99.90
2019-05-13T21:57:53.049Z,99.90
2019-05-13T22:00:25.864Z,99.90
2019-05-13T22:02:56.903Z,99.90
2019-05-13T22:05:31.631Z,99.90
2019-05-13T22:08:01.766Z,99.80
2019-05-13T22:10:31.140Z,99.70
2019-05-13T22:13:02.762Z,99.50
2019-05-13T22:15:32.265Z,99.50
2019-05-13T22:18:07.123Z,99.60
2019-05-13T22:20:50.025Z,99.40
2019-05-13T22:23:12.398Z,98.80
2019-05-13T22:25:47.171Z,98.60
2019-05-13T22:28:18.567Z,98.30
2019-05-13T22:30:48.331Z,98.10
2019-05-13T22:33:17.277Z,98.00
2019-05-13T22:35:47.090Z,97.80
2019-05-13T22:38:21.715Z,98.00
2019-05-13T22:40:56.340Z,98.00
2019-05-13T22:43:25.338Z,98.00
2019-05-13T22:45:56.885Z,97.90
2019-05-13T22:48:31.874Z,97.80
2019-05-13T22:51:03.679Z,97.50
2019-05-13T22:53:32.670Z,97.30
2019-05-13T22:56:07.295Z,97.30
2019-05-13T22:58:41.921Z,97.10
2019-05-13T23:01:13.371Z,97.20
2019-05-13T23:03:46.359Z,97.20
2019-05-13T23:06:21.616Z,97.10
2019-05-13T23:08:50.999Z,97.00
2019-05-13T23:11:25.607Z,97.00
2019-05-13T23:14:06.517Z,96.80
2019-05-13T23:16:25.045Z,96.70
2019-05-13T23:18:54.864Z,96.50
2019-05-13T23:21:31.291Z,96.20
2019-05-13T23:24:07.386Z,95.80
2019-05-13T23:26:42.473Z,96.00
2019-05-13T23:29:14.074Z,95.80
2019-05-13T23:31:45.501Z,95.40
2019-05-13T23:34:17.177Z,95.50
2019-05-13T23:36:48.629Z,95.10
2019-05-13T23:39:23.362Z,94.60
2019-05-13T23:41:57.980Z,94.50
2019-05-13T23:44:32.708Z,94.30
2019-05-13T23:47:04.157Z,94.70
2019-05-13T23:49:35.585Z,94.50
2019-05-13T23:52:05.636Z,94.50
2019-05-13T23:54:42.328Z,94.50
2019-05-13T23:57:14.059Z,94.20
2019-05-13T23:59:46.329Z,94.50
